Time;durP1;ratioP1;P1;durP2;ratioP2;P2;SDS_P1;SDS_P2;PMS_P1;PMS_P2;Temp;Humidity;BMP_temperature;BMP_pressure;BME280_temperature;BME280_humidity;BME280_pressure;Samples;Min_cycle;Max_cycle;Signal;HPM_P1;HPM_P2
2022/02/02 00:04:47;;;;;;;40.60;6.90;;;5.60;86.90;;;;;;4988442;28;20081;-72
2022/02/02 00:10:02;;;;;;;32.17;6.18;;;5.60;86.60;;;;;;4991568;28;20026;-72
2022/02/02 00:15:30;;;;;;;28.90;5.43;;;5.50;86.50;;;;;;4990901;28;20081;-72
2022/02/02 00:18:13;;;;;;;37.70;6.30;;;5.60;86.10;;;;;;4972946;28;20037;-72
2022/02/02 00:21:02;;;;;;;30.45;4.75;;;5.60;85.90;;;;;;4979978;28;20521;-72
2022/02/02 00:23:37;;;;;;;27.63;5.38;;;5.60;85.60;;;;;;4987571;28;20023;-72
2022/02/02 00:26:14;;;;;;;32.72;6.38;;;5.50;86.40;;;;;;4988243;28;20056;-72
2022/02/02 00:28:44;;;;;;;32.58;5.80;;;5.60;86.00;;;;;;4988689;28;20113;-72
2022/02/02 00:31:16;;;;;;;21.20;4.03;;;5.60;86.00;;;;;;4989117;28;20030;-72
2022/02/02 00:33:47;;;;;;;34.47;6.65;;;5.60;85.80;;;;;;4990215;28;20833;-72
2022/02/02 00:36:18;;;;;;;32.83;4.75;;;5.60;85.80;;;;;;4984807;28;20032;-72
2022/02/02 00:38:44;;;;;;;25.10;5.07;;;5.60;85.80;;;;;;4991950;28;20034;-72
2022/02/02 00:41:09;;;;;;;33.72;5.65;;;5.60;85.60;;;;;;4992139;28;20049;-72
2022/02/02 00:43:35;;;;;;;21.65;4.03;;;5.60;85.90;;;;;;4993081;28;20030;-72
2022/02/02 00:46:00;;;;;;;35.95;5.82;;;5.60;86.00;;;;;;4992186;28;20047;-72
2022/02/02 00:48:28;;;;;;;37.20;6.30;;;5.60;86.20;;;;;;4992242;28;20051;-72
2022/02/02 00:50:54;;;;;;;26.85;5.05;;;5.50;86.50;;;;;;4993326;28;20029;-72
2022/02/02 00:53:21;;;;;;;37.28;5.75;;;5.60;86.30;;;;;;4991783;28;20026;-72
2022/02/02 00:55:47;;;;;;;31.63;5.60;;;5.60;86.20;;;;;;4987647;28;20038;-72
2022/02/02 00:58:12;;;;;;;43.20;6.25;;;5.60;86.00;;;;;;4993103;28;20041;-72
2022/02/02 01:00:39;;;;;;;25.80;4.82;;;5.60;86.50;;;;;;4999243;28;20097;-72
2022/02/02 01:03:05;;;;;;;30.70;6.10;;;5.60;86.10;;;;;;4998145;28;20038;-72
2022/02/02 01:05:30;;;;;;;24.10;4.82;;;5.60;86.40;;;;;;4992615;28;20034;-72
2022/02/02 01:10:46;;;;;;;16.50;3.58;;;5.60;85.80;;;;;;4989563;28;20060;-72
2022/02/02 01:18:21;;;;;;;20.08;5.28;;;5.60;86.10;;;;;;4994909;28;20536;-72
2022/02/02 01:20:54;;;;;;;30.35;5.10;;;5.60;85.80;;;;;;5002718;28;20026;-72
2022/02/02 01:28:37;;;;;;;30.83;5.15;;;5.50;86.20;;;;;;4997926;28;20088;-72
2022/02/02 01:31:03;;;;;;;23.02;3.35;;;5.60;86.10;;;;;;4998514;28;20377;-72
2022/02/02 01:33:30;;;;;;;31.55;6.50;;;5.60;86.60;;;;;;4991031;28;20377;-72
2022/02/02 01:35:57;;;;;;;33.05;4.90;;;5.50;87.20;;;;;;5000968;28;20025;-72
2022/02/02 01:38:26;;;;;;;28.33;5.10;;;5.50;87.30;;;;;;4988314;28;20051;-72
2022/02/02 01:40:57;;;;;;;27.38;5.28;;;5.50;86.30;;;;;;4990191;28;20037;-72
2022/02/02 01:43:28;;;;;;;26.85;5.00;;;5.50;86.20;;;;;;4991530;28;20108;-72
2022/02/02 01:46:02;;;;;;;15.38;2.88;;;5.40;86.30;;;;;;4989196;28;20022;-72
2022/02/02 01:48:36;;;;;;;34.70;4.88;;;5.40;85.70;;;;;;4987167;28;20022;-72
2022/02/02 01:51:44;;;;;;;27.05;5.25;;;5.40;85.90;;;;;;4986022;28;20492;-72
2022/02/02 01:54:16;;;;;;;29.92;5.00;;;5.50;85.30;;;;;;4998485;28;20022;-72
2022/02/02 01:56:42;;;;;;;28.92;5.05;;;5.40;86.20;;;;;;4989884;28;20121;-72
2022/02/02 01:59:23;;;;;;;27.65;3.90;;;5.40;87.00;;;;;;4983161;28;20101;-72
2022/02/02 02:01:48;;;;;;;;;;;5.30;87.00;;;;;;4993459;28;20034;-72
2022/02/02 02:04:14;;;;;;;20.63;4.30;;;5.40;86.30;;;;;;4992508;28;19905;-72
2022/02/02 02:06:39;;;;;;;24.08;5.13;;;5.30;86.60;;;;;;4991548;28;20077;-72
2022/02/02 02:09:05;;;;;;;25.20;4.07;;;5.20;87.10;;;;;;4992074;28;20038;-72
2022/02/02 02:11:31;;;;;;;24.33;4.05;;;5.20;87.50;;;;;;4998016;28;20458;-72
2022/02/02 02:14:36;;;;;;;24.55;4.85;;;5.20;86.50;;;;;;4994858;28;20026;-72
2022/02/02 02:16:47;;;;;;;18.42;4.03;;;5.20;86.40;;;;;;4994649;28;20051;-72
2022/02/02 02:19:13;;;;;;;16.42;3.60;;;5.30;86.10;;;;;;5005220;28;20104;-72
2022/02/02 02:21:39;;;;;;;24.02;4.60;;;5.20;86.70;;;;;;4991563;28;20026;-73
2022/02/02 02:24:04;;;;;;;16.98;4.07;;;5.20;87.10;;;;;;4986729;28;20068;-72
2022/02/02 02:26:30;;;;;;;24.33;3.78;;;5.10;87.40;;;;;;4996195;28;20110;-72
2022/02/02 02:29:17;;;;;;;16.60;3.45;;;5.10;87.40;;;;;;4994197;28;20501;-72
2022/02/02 02:31:59;;;;;;;26.00;3.58;;;5.10;87.50;;;;;;4991556;28;20026;-72
2022/02/02 02:55:50;;;;;;;20.42;4.05;;;5.50;84.60;;;;;;4994315;28;20040;-72
2022/02/02 03:50:40;;;;;;;30.30;5.30;;;5.50;85.40;;;;;;4984827;28;20100;-72
2022/02/02 03:56:27;;;;;;;37.47;5.68;;;5.30;87.10;;;;;;4986754;28;20037;-72
2022/02/02 04:01:48;;;;;;;24.00;3.95;;;5.10;87.50;;;;;;4993890;28;20289;-72
2022/02/02 04:07:05;;;;;;;18.35;4.00;;;5.10;88.10;;;;;;4992190;28;20038;-72
2022/02/02 04:09:35;;;;;;;26.25;4.93;;;5.00;89.00;;;;;;4977249;28;20030;-72
2022/02/02 04:17:44;;;;;;;28.85;4.88;;;4.70;90.70;;;;;;5002181;28;20041;-72
2022/02/02 04:58:57;;;;;;;18.92;3.42;;;4.90;88.70;;;;;;4986438;28;20133;-72
2022/02/02 05:04:20;;;;;;;18.52;3.95;;;4.90;88.00;;;;;;4989968;28;20029;-72
2022/02/02 05:06:58;;;;;;;17.13;3.50;;;4.90;88.30;;;;;;4985979;28;20041;-72
2022/02/02 05:09:54;;;;;;;16.58;3.05;;;4.90;88.30;;;;;;4988504;28;20113;-72
2022/02/02 05:15:46;;;;;;;23.88;4.40;;;4.80;89.10;;;;;;4988421;28;20053;-72
2022/02/02 05:18:15;;;;;;;18.15;3.67;;;4.90;88.80;;;;;;4988988;28;20066;-72
2022/02/02 05:21:07;;;;;;;25.75;4.53;;;4.90;89.00;;;;;;4980085;28;20030;-70
2022/02/02 05:24:24;;;;;;;23.00;4.00;;;4.90;88.90;;;;;;4990092;28;20081;-70
2022/02/02 05:45:24;;;;;;;19.02;3.20;;;5.10;88.90;;;;;;4981625;28;20030;-70
2022/02/02 05:53:14;;;;;;;24.05;4.28;;;5.10;88.40;;;;;;4994876;28;20073;-71
2022/02/02 05:55:43;;;;;;;23.30;4.03;;;5.00;88.60;;;;;;4990424;28;20595;-70
2022/02/02 05:58:09;;;;;;;15.60;3.25;;;5.00;88.70;;;;;;5003581;28;20023;-71
2022/02/02 06:00:37;;;;;;;11.73;2.45;;;5.00;88.20;;;;;;4986278;28;20085;-71
2022/02/02 06:03:11;;;;;;;15.55;3.58;;;5.00;88.30;;;;;;4992148;28;20022;-71
2022/02/02 06:05:40;;;;;;;17.25;2.60;;;5.00;88.10;;;;;;4991689;28;20662;-71
2022/02/02 06:08:13;;;;;;;20.00;3.85;;;5.10;87.70;;;;;;4992168;28;20049;-71
2022/02/02 06:10:41;;;;;;;18.88;3.67;;;5.10;87.70;;;;;;4995684;28;20029;-71
2022/02/02 06:13:06;;;;;;;12.73;3.40;;;5.10;87.90;;;;;;4993583;28;20070;-71
2022/02/02 06:15:34;;;;;;;20.05;3.88;;;5.20;87.70;;;;;;4980982;28;20078;-71
2022/02/02 06:18:04;;;;;;;16.42;3.13;;;5.10;88.00;;;;;;4990096;28;20049;-71
2022/02/02 06:20:31;;;;;;;30.55;4.35;;;5.20;87.90;;;;;;4991051;28;20485;-71
2022/02/02 06:23:20;;;;;;;27.52;4.43;;;5.20;87.80;;;;;;4988797;28;20031;-71
2022/02/02 06:25:47;;;;;;;19.02;3.08;;;5.10;88.00;;;;;;4981074;28;20478;-71
2022/02/02 06:28:22;;;;;;;11.32;2.83;;;5.20;87.70;;;;;;4992911;28;20030;-71
2022/02/02 06:30:57;;;;;;;13.43;3.20;;;5.20;87.70;;;;;;4999410;28;20450;-71
2022/02/02 06:33:29;;;;;;;12.57;3.00;;;5.30;87.60;;;;;;4991022;28;20026;-71
2022/02/02 06:35:56;;;;;;;10.38;2.40;;;5.30;87.90;;;;;;4989854;28;20061;-71
2022/02/02 06:38:23;;;;;;;14.90;3.10;;;5.40;87.20;;;;;;4989614;28;20044;-71
2022/02/02 06:40:51;;;;;;;15.23;3.40;;;5.40;87.30;;;;;;4990083;28;20034;-71
2022/02/02 06:43:18;;;;;;;14.07;3.00;;;5.30;87.40;;;;;;4990604;28;20036;-71
2022/02/02 06:45:45;;;;;;;34.00;3.92;;;5.30;87.60;;;;;;4986605;28;20042;-71
2022/02/02 06:48:11;;;;;;;14.10;2.15;;;5.30;87.60;;;;;;4992009;28;20049;-71
2022/02/02 06:50:41;;;;;;;12.88;2.30;;;5.20;87.30;;;;;;4987833;28;20038;-71
2022/02/02 06:53:27;;;;;;;14.23;2.37;;;5.10;87.40;;;;;;4990107;28;20422;-71
2022/02/02 06:56:31;;;;;;;14.70;2.00;;;5.10;87.50;;;;;;4988664;28;20297;-71
2022/02/02 07:08:12;;;;;;;20.42;2.38;;;5.00;87.30;;;;;;4980066;28;20038;-71
2022/02/02 07:10:56;;;;;;;19.00;2.10;;;5.00;86.10;;;;;;4983543;28;20328;-71
2022/02/02 07:16:17;;;;;;;12.63;2.33;;;5.00;85.90;;;;;;4986055;28;20050;-71
2022/02/02 07:22:05;;;;;;;17.63;2.65;;;5.00;86.00;;;;;;5002374;28;20037;-71
2022/02/02 07:27:24;;;;;;;16.88;2.22;;;4.90;86.60;;;;;;4986472;28;20072;-71
2022/02/02 07:32:29;;;;;;;7.65;1.90;;;5.00;86.50;;;;;;4992013;28;20073;-71
2022/02/02 07:35:11;;;;;;;13.65;2.30;;;4.90;86.70;;;;;;4987123;28;20529;-71
2022/02/02 07:37:46;;;;;;;11.98;2.17;;;4.90;87.00;;;;;;4983093;28;20027;-70
2022/02/02 07:40:13;;;;;;;12.68;2.50;;;4.90;87.00;;;;;;4987930;28;20022;-71
2022/02/02 07:42:45;;;;;;;14.38;2.60;;;4.90;87.10;;;;;;4982292;28;20026;-71
2022/02/02 07:45:12;;;;;;;14.10;3.03;;;5.00;86.80;;;;;;4973842;28;20030;-71
2022/02/02 07:47:40;;;;;;;21.92;3.35;;;5.00;86.90;;;;;;4979919;28;20042;-71
2022/02/02 07:50:07;;;;;;;18.77;2.90;;;5.00;86.80;;;;;;4986717;28;20027;-71
2022/02/02 07:52:33;;;;;;;12.55;2.85;;;4.90;87.20;;;;;;4982508;28;20029;-71
2022/02/02 07:55:02;;;;;;;22.23;3.22;;;4.90;87.20;;;;;;4986939;28;20062;-71
2022/02/02 07:57:28;;;;;;;12.10;1.92;;;4.90;87.30;;;;;;4983356;28;20027;-71
2022/02/02 07:59:58;;;;;;;13.77;2.92;;;4.90;86.70;;;;;;4992109;28;20037;-71
2022/02/02 08:02:42;;;;;;;18.30;4.00;;;4.90;86.70;;;;;;4990088;28;20021;-71
2022/02/02 08:05:10;;;;;;;19.42;3.63;;;4.90;85.90;;;;;;4985409;28;20027;-71
2022/02/02 08:07:42;;;;;;;23.35;3.78;;;4.90;85.80;;;;;;4984415;28;20027;-71
2022/02/02 08:10:26;;;;;;;15.27;2.67;;;4.90;85.80;;;;;;4990024;28;20034;-71
2022/02/02 08:12:57;;;;;;;16.67;3.08;;;4.90;85.40;;;;;;4984928;28;20035;-71
2022/02/02 08:15:26;;;;;;;17.25;2.33;;;4.80;85.30;;;;;;4987533;28;20144;-71
2022/02/02 08:17:54;;;;;;;13.80;2.70;;;4.80;85.00;;;;;;4991475;28;20069;-71
2022/02/02 08:20:20;;;;;;;13.57;2.80;;;4.80;84.80;;;;;;4979632;28;20034;-71
2022/02/02 08:22:46;;;;;;;18.58;3.33;;;4.90;84.80;;;;;;4986330;28;20477;-71
2022/02/02 08:25:25;;;;;;;15.02;3.22;;;4.90;85.30;;;;;;4988111;28;20098;-71
2022/02/02 08:27:53;;;;;;;19.23;3.28;;;4.90;85.70;;;;;;4991005;28;20482;-71
2022/02/02 08:30:21;;;;;;;16.35;3.55;;;4.90;86.20;;;;;;4990756;28;20072;-71
2022/02/02 08:32:57;;;;;;;18.17;3.22;;;5.00;86.10;;;;;;4987210;28;20056;-71
2022/02/02 08:35:25;;;;;;;16.80;3.55;;;5.00;86.20;;;;;;4987588;28;20169;-71
2022/02/02 08:38:17;;;;;;;22.73;3.53;;;5.00;86.20;;;;;;4987175;28;20042;-71
2022/02/02 08:40:57;;;;;;;19.85;2.97;;;4.90;86.60;;;;;;4980375;28;20038;-71
2022/02/02 08:45:56;;;;;;;13.25;2.60;;;5.00;86.30;;;;;;4985159;28;20301;-71
2022/02/02 08:48:25;;;;;;;11.73;2.15;;;5.00;86.10;;;;;;4990814;28;20034;-71
2022/02/02 08:50:58;;;;;;;17.48;2.97;;;5.10;85.70;;;;;;4982356;28;20038;-71
2022/02/02 09:00:48;;;;;;;16.13;2.90;;;5.10;85.30;;;;;;4990145;28;20454;-71
2022/02/02 09:05:20;;;;;;;18.27;2.78;;;5.10;84.90;;;;;;4991785;28;20021;-71
2022/02/02 09:05:59;;;;;;;14.80;2.67;;;5.20;84.70;;;;;;4993922;28;20093;-71
2022/02/02 09:08:29;;;;;;;17.77;2.67;;;5.20;84.30;;;;;;4995173;28;20026;-71
2022/02/02 09:24:46;;;;;;;12.27;2.20;;;5.60;83.90;;;;;;4992655;28;20470;-71
2022/02/02 09:35:06;;;;;;;14.30;3.40;;;5.70;83.00;;;;;;4986409;28;20096;-70
2022/02/02 09:37:32;;;;;;;12.75;2.65;;;5.80;82.00;;;;;;4987312;28;20026;-70
2022/02/02 09:40:10;;;;;;;10.70;2.15;;;5.80;82.10;;;;;;4998773;28;20033;-70
2022/02/02 09:42:36;;;;;;;11.73;2.05;;;5.90;81.30;;;;;;4984837;28;20022;-74
2022/02/02 09:45:08;;;;;;;19.15;2.80;;;6.10;81.40;;;;;;4994926;28;20155;-73
2022/02/02 09:47:41;;;;;;;10.73;1.88;;;6.10;81.20;;;;;;4986057;28;20433;-74
2022/02/02 09:50:18;;;;;;;6.60;1.73;;;6.00;81.20;;;;;;4999048;28;20455;-74
2022/02/02 09:52:51;;;;;;;11.73;2.33;;;6.10;80.30;;;;;;4981689;28;20105;-74
2022/02/02 09:55:33;;;;;;;13.13;2.13;;;6.20;79.90;;;;;;4990338;28;20018;-74
2022/02/02 10:06:32;;;;;;;11.07;1.50;;;6.10;79.40;;;;;;4982785;28;20034;-77
2022/02/02 10:09:23;;;;;;;13.88;2.20;;;6.10;79.40;;;;;;4985809;28;20045;-75
2022/02/02 10:12:08;;;;;;;14.25;2.72;;;6.20;79.70;;;;;;4993062;28;20521;-74
2022/02/02 10:14:37;;;;;;;12.57;1.90;;;6.20;80.00;;;;;;4992152;28;20478;-74
2022/02/02 10:17:09;;;;;;;10.10;2.17;;;6.50;79.60;;;;;;4988327;28;20117;-72
2022/02/02 10:19:36;;;;;;;11.93;1.63;;;6.30;78.60;;;;;;4993361;28;20022;-73
2022/02/02 10:22:27;;;;;;;13.60;2.67;;;6.40;79.20;;;;;;4994265;28;20057;-74
2022/02/02 10:24:55;;;;;;;9.25;2.05;;;6.60;78.60;;;;;;4977612;28;20022;-74
2022/02/02 10:27:34;;;;;;;14.23;2.17;;;6.60;78.50;;;;;;4988510;28;20066;-75
2022/02/02 10:30:10;;;;;;;11.77;2.55;;;6.60;77.70;;;;;;4983125;28;20061;-73
2022/02/02 10:32:42;;;;;;;11.63;2.22;;;6.80;77.30;;;;;;4993157;28;20097;-73
2022/02/02 10:35:08;;;;;;;;;;;6.50;77.30;;;;;;4993300;28;20093;-73
2022/02/02 10:37:36;;;;;;;10.23;2.10;;;6.40;77.60;;;;;;4999651;28;19913;-72
2022/02/02 10:40:03;;;;;;;14.80;2.30;;;6.40;78.70;;;;;;5002785;28;20026;-73
2022/02/02 10:42:44;;;;;;;18.17;1.95;;;6.40;79.30;;;;;;4986108;28;20034;-73
2022/02/02 10:45:25;;;;;;;17.48;2.60;;;6.60;78.30;;;;;;4984495;28;20030;-72
2022/02/02 10:48:00;;;;;;;15.18;2.60;;;6.60;79.00;;;;;;4992730;28;20066;-73
2022/02/02 10:50:34;;;;;;;16.55;2.55;;;6.50;78.40;;;;;;4990770;28;20022;-72
2022/02/02 10:53:32;;;;;;;11.95;2.20;;;6.60;78.20;;;;;;4987347;28;20019;-73
2022/02/02 11:01:47;;;;;;;7.45;2.05;;;6.70;77.10;;;;;;4981039;28;20022;-72
2022/02/02 11:06:59;;;;;;;13.73;2.45;;;6.70;76.70;;;;;;4979600;28;20489;-72
2022/02/02 11:09:25;;;;;;;15.23;2.47;;;6.70;75.90;;;;;;4986131;28;20062;-72
2022/02/02 11:11:53;;;;;;;9.50;2.20;;;6.70;77.00;;;;;;4990998;28;20030;-72
2022/02/02 11:14:39;;;;;;;11.55;1.85;;;7.00;75.90;;;;;;4997751;28;20354;-72
2022/02/02 11:17:23;;;;;;;10.70;2.25;;;7.00;75.90;;;;;;4988033;28;20038;-72
2022/02/02 11:19:51;;;;;;;14.45;2.50;;;7.00;75.80;;;;;;4986936;28;20034;-72
2022/02/02 11:22:33;;;;;;;10.43;1.88;;;7.00;75.30;;;;;;4989759;28;20362;-72
2022/02/02 11:25:04;;;;;;;10.02;2.22;;;7.10;75.60;;;;;;4984700;28;20023;-72
2022/02/02 11:27:34;;;;;;;13.77;2.33;;;6.90;74.20;;;;;;4981511;28;20064;-72
2022/02/02 11:30:03;;;;;;;11.93;2.40;;;6.80;74.10;;;;;;4984075;28;20458;-72
2022/02/02 11:32:45;;;;;;;11.40;1.80;;;6.90;75.00;;;;;;4973160;28;20033;-72
2022/02/02 11:38:24;;;;;;;14.57;2.05;;;6.90;75.20;;;;;;4988578;28;20034;-72
2022/02/02 11:41:13;;;;;;;14.93;2.53;;;7.10;74.70;;;;;;4984447;28;20029;-73
2022/02/02 11:44:04;;;;;;;9.57;1.50;;;6.90;74.80;;;;;;4989591;28;20025;-72
2022/02/02 11:47:21;;;;;;;14.15;1.88;;;6.70;73.80;;;;;;4984717;28;20029;-72
2022/02/02 11:50:01;;;;;;;10.93;1.90;;;6.80;72.90;;;;;;4975063;28;20371;-71
2022/02/02 11:52:45;;;;;;;10.50;1.60;;;6.60;72.60;;;;;;4985621;28;20099;-72
2022/02/02 11:55:11;;;;;;;13.93;1.60;;;6.70;72.50;;;;;;4977011;28;20137;-72
2022/02/02 11:58:12;;;;;;;8.85;1.98;;;6.60;71.60;;;;;;4980801;28;20114;-72
2022/02/02 12:01:10;;;;;;;;;;;7.00;72.00;;;;;;4981873;28;20105;-72
2022/02/02 12:03:44;;;;;;;8.63;1.35;;;7.10;69.60;;;;;;4989131;28;19906;-72
2022/02/02 12:09:22;;;;;;;9.50;1.85;;;6.80;71.70;;;;;;4985116;28;20065;-72
2022/02/02 12:27:56;;;;;;;9.80;1.60;;;6.20;75.40;;;;;;4994550;28;20385;-72
2022/02/02 12:47:07;;;;;;;9.75;2.00;;;6.20;78.10;;;;;;4997684;28;20100;-72
2022/02/02 13:00:13;;;;;;;4.82;1.27;;;5.60;78.20;;;;;;4998025;28;20026;-72
2022/02/02 13:02:42;;;;;;;4.18;1.23;;;6.10;78.30;;;;;;4991129;28;20041;-72
2022/02/02 13:05:09;;;;;;;7.88;1.40;;;6.20;77.80;;;;;;4993609;28;20018;-72
2022/02/02 13:07:37;;;;;;;8.57;1.50;;;5.80;79.00;;;;;;4993729;28;20077;-72
2022/02/02 13:10:08;;;;;;;12.50;1.63;;;5.80;79.70;;;;;;4991835;28;20504;-72
2022/02/02 13:12:46;;;;;;;8.23;1.48;;;6.00;79.80;;;;;;4995705;28;20036;-72
2022/02/02 13:15:40;;;;;;;8.70;1.70;;;6.30;79.80;;;;;;4999722;28;20077;-72
2022/02/02 13:21:02;;;;;;;8.20;1.60;;;6.70;77.40;;;;;;4980095;28;20042;-72
2022/02/02 13:24:12;;;;;;;9.70;1.20;;;6.70;77.50;;;;;;4984279;28;20022;-72
2022/02/02 13:26:38;;;;;;;6.85;1.35;;;6.90;77.30;;;;;;4984377;28;20458;-72
2022/02/02 13:29:25;;;;;;;9.93;1.83;;;7.30;77.20;;;;;;4989420;28;20029;-72
2022/02/02 13:32:12;;;;;;;6.65;1.60;;;7.40;75.70;;;;;;4975412;28;20034;-72
2022/02/02 13:34:48;;;;;;;9.75;1.80;;;7.20;76.50;;;;;;4991294;28;20031;-72
2022/02/02 13:37:42;;;;;;;9.80;1.67;;;7.40;76.10;;;;;;5004702;28;20034;-72
2022/02/02 13:48:15;;;;;;;8.77;1.95;;;8.10;73.40;;;;;;4990846;28;20100;-72
2022/02/02 13:51:04;;;;;;;10.68;1.80;;;8.10;72.40;;;;;;4992208;28;20080;-72
2022/02/02 13:59:22;;;;;;;5.85;1.55;;;7.40;69.10;;;;;;4983461;28;20442;-72
2022/02/02 14:01:57;;;;;;;7.55;1.10;;;7.30;68.50;;;;;;4990131;28;20030;-72
2022/02/02 14:04:45;;;;;;;5.63;1.48;;;7.60;67.10;;;;;;4988442;28;20365;-72
2022/02/02 14:31:22;;;;;;;9.77;1.50;;;6.00;73.80;;;;;;4961588;28;20582;-72
2022/02/02 14:33:51;;;;;;;8.05;1.30;;;5.30;79.60;;;;;;4993989;28;20088;-72
2022/02/02 14:36:20;;;;;;;7.90;1.33;;;5.70;79.30;;;;;;4991322;28;20030;-72
2022/02/02 14:39:15;;;;;;;5.10;1.08;;;6.00;77.60;;;;;;5003080;28;20026;-72
2022/02/02 14:46:43;;;;;;;6.88;1.23;;;6.20;76.70;;;;;;4992946;28;20018;-72
2022/02/02 14:49:24;;;;;;;6.50;1.58;;;5.80;76.30;;;;;;4992426;28;20033;-72
2022/02/02 15:32:55;;;;;;;7.10;1.08;;;5.20;80.30;;;;;;4986055;28;20038;-72
2022/02/02 15:35:22;;;;;;;8.38;1.60;;;5.10;80.60;;;;;;4989392;28;20042;-74
2022/02/02 15:38:00;;;;;;;9.55;1.75;;;5.10;80.90;;;;;;5003875;28;20101;-75
2022/02/02 15:40:34;;;;;;;11.15;1.92;;;5.10;81.30;;;;;;4989986;28;20022;-74
2022/02/02 15:43:25;;;;;;;13.60;2.47;;;5.10;81.20;;;;;;4988986;28;20045;-75
2022/02/02 15:59:27;;;;;;;16.30;5.15;;;4.80;82.40;;;;;;4988912;28;20413;-72
2022/02/02 16:04:38;;;;;;;10.35;2.28;;;4.70;82.70;;;;;;4992673;28;20045;-73
2022/02/02 16:07:07;;;;;;;10.52;1.83;;;4.70;83.20;;;;;;4995420;28;20044;-74
2022/02/02 16:09:43;;;;;;;6.20;1.60;;;4.70;83.00;;;;;;4991220;28;20037;-72
2022/02/02 16:12:24;;;;;;;17.48;2.60;;;4.60;83.00;;;;;;4992428;28;20408;-73
2022/02/02 16:15:14;;;;;;;9.93;2.25;;;4.60;83.20;;;;;;4990633;28;20054;-73
2022/02/02 16:34:35;;;;;;;12.98;2.60;;;4.20;84.50;;;;;;4992723;28;20076;-73
2022/02/02 16:39:24;;;;;;;12.55;2.20;;;4.20;83.80;;;;;;4990905;28;20070;-75
2022/02/02 16:44:34;;;;;;;14.70;2.88;;;4.20;84.20;;;;;;4988781;28;20034;-74
2022/02/02 16:46:59;;;;;;;15.50;3.38;;;4.10;84.40;;;;;;4978237;28;20027;-74
2022/02/02 16:49:24;;;;;;;14.27;2.63;;;4.00;84.40;;;;;;4983514;28;20045;-75
2022/02/02 16:51:51;;;;;;;17.50;2.80;;;4.10;84.50;;;;;;4987725;28;20035;-75
2022/02/02 16:54:50;;;;;;;14.02;2.97;;;3.90;84.70;;;;;;4988877;28;20035;-73
2022/02/02 16:57:28;;;;;;;18.25;2.97;;;4.00;84.70;;;;;;4978492;28;20050;-73
2022/02/02 17:34:51;;;;;;;16.20;3.47;;;3.40;86.60;;;;;;4987364;28;20033;-72
2022/02/02 17:37:43;;;;;;;16.65;3.35;;;3.30;87.00;;;;;;4981433;28;20042;-71
2022/02/02 17:40:14;;;;;;;15.32;2.75;;;3.30;87.20;;;;;;4993491;28;20025;-73
2022/02/02 18:00:07;;;;;;;19.27;3.10;;;2.70;89.00;;;;;;4996372;28;20054;-76
2022/02/02 18:12:50;;;;;;;17.08;2.70;;;2.00;89.10;;;;;;4992523;28;20057;-74
2022/02/02 18:18:43;;;;;;;19.80;4.40;;;1.70;89.80;;;;;;4988476;28;20481;-75
2022/02/02 18:20:51;;;;;;;21.83;5.22;;;1.60;90.10;;;;;;4979368;28;20125;-73
2022/02/02 18:23:33;;;;;;;19.98;5.57;;;1.50;90.50;;;;;;4986164;28;20029;-73
2022/02/02 18:28:41;;;;;;;20.30;5.82;;;1.40;91.10;;;;;;4985278;28;20026;-74
2022/02/02 18:34:07;;;;;;;16.13;4.68;;;1.40;91.50;;;;;;4993414;28;20081;-74
2022/02/02 18:36:45;;;;;;;25.17;4.65;;;1.50;91.70;;;;;;4992673;28;20026;-75
2022/02/02 18:43:04;;;;;;;22.23;3.88;;;1.60;91.90;;;;;;4993533;28;20101;-76
2022/02/02 18:54:59;;;;;;;26.65;4.82;;;1.60;92.30;;;;;;4983143;28;20061;-73
2022/02/02 18:57:51;;;;;;;18.77;4.90;;;1.60;92.50;;;;;;4980064;28;20030;-76
2022/02/02 19:00:38;;;;;;;19.08;3.78;;;1.70;92.60;;;;;;4986194;28;20022;-73
2022/02/02 20:08:18;;;;;;;31.00;4.03;;;1.30;94.90;;;;;;4987151;28;20462;-75
2022/02/02 20:11:00;;;;;;;29.48;3.47;;;1.40;94.90;;;;;;4979376;28;20040;-75
2022/02/02 20:13:25;;;;;;;27.50;2.92;;;1.30;94.80;;;;;;4976940;28;20037;-75
2022/02/02 20:15:51;;;;;;;33.03;3.42;;;1.20;94.70;;;;;;4986148;28;20478;-75
2022/02/02 20:18:17;;;;;;;22.27;3.90;;;1.20;94.80;;;;;;4988699;28;20046;-75
2022/02/02 20:20:44;;;;;;;27.38;4.60;;;1.40;95.10;;;;;;4988539;28;20030;-75
2022/02/02 20:23:10;;;;;;;32.80;3.35;;;1.30;94.90;;;;;;4985693;28;20125;-75
2022/02/02 20:25:38;;;;;;;25.15;3.35;;;1.30;94.90;;;;;;4989825;28;20073;-75
2022/02/02 20:28:09;;;;;;;23.23;3.55;;;1.40;95.00;;;;;;4998231;28;20400;-75
2022/02/02 20:30:36;;;;;;;;;;;1.40;94.90;;;;;;4986516;28;20038;-75
2022/02/02 20:33:03;;;;;;;38.35;4.18;;;1.30;94.90;;;;;;4990998;28;20341;-75
2022/02/02 20:35:29;;;;;;;26.58;3.58;;;1.20;94.80;;;;;;4985957;28;20035;-74
2022/02/02 20:37:54;;;;;;;33.05;4.40;;;1.20;95.10;;;;;;4983317;28;20026;-74
2022/02/02 20:40:21;;;;;;;25.55;3.05;;;1.20;94.90;;;;;;4991358;28;20034;-74
2022/02/02 21:06:58;;;;;;;27.20;3.92;;;1.20;95.30;;;;;;4982374;28;20446;-73
2022/02/02 21:14:46;;;;;;;25.77;3.85;;;1.20;95.40;;;;;;4981803;28;20042;-74
2022/02/02 21:17:25;;;;;;;28.52;4.88;;;1.20;95.40;;;;;;4976686;28;20093;-74
2022/02/02 21:22:17;;;;;;;36.55;4.25;;;1.20;95.50;;;;;;4974437;28;20042;-73
2022/02/02 21:24:53;;;;;;;28.73;4.20;;;1.20;95.50;;;;;;4987513;28;20023;-73
2022/02/02 21:27:37;;;;;;;33.83;4.13;;;1.20;95.50;;;;;;4996357;28;20031;-73
2022/02/02 21:30:25;;;;;;;33.10;4.32;;;1.20;95.60;;;;;;4991303;28;20033;-72
2022/02/02 21:32:51;;;;;;;44.83;4.35;;;1.10;95.40;;;;;;4989300;28;20049;-72
2022/02/02 21:35:22;;;;;;;34.85;4.65;;;1.00;95.50;;;;;;4990886;28;20033;-72
2022/02/02 21:37:51;;;;;;;30.98;4.13;;;0.90;95.50;;;;;;4985667;28;20023;-72
2022/02/02 21:40:32;;;;;;;27.60;4.45;;;1.00;95.70;;;;;;4990556;28;20462;-72
2022/02/02 21:42:59;;;;;;;28.70;4.25;;;1.20;95.90;;;;;;4987983;28;20030;-72
2022/02/02 21:45:29;;;;;;;38.00;5.45;;;1.30;95.90;;;;;;4990827;28;20173;-72
2022/02/02 21:47:56;;;;;;;30.27;4.60;;;1.30;95.90;;;;;;4988669;28;20027;-72
2022/02/02 21:50:22;;;;;;;39.88;4.90;;;1.30;95.80;;;;;;4993627;28;20547;-72
2022/02/02 21:52:49;;;;;;;39.10;4.95;;;1.20;95.80;;;;;;4996088;28;20023;-72
2022/02/02 21:55:15;;;;;;;31.52;4.80;;;1.20;95.80;;;;;;4983037;28;20015;-72
2022/02/02 21:57:41;;;;;;;31.90;5.40;;;1.30;95.90;;;;;;4982406;28;20034;-72
2022/02/02 22:00:10;;;;;;;34.63;4.53;;;1.40;96.00;;;;;;4993287;28;20034;-71
2022/02/02 22:02:36;;;;;;;34.38;4.65;;;1.30;96.00;;;;;;4990440;28;20026;-71
2022/02/02 22:05:04;;;;;;;36.67;5.03;;;1.40;96.00;;;;;;4996749;28;20026;-71
2022/02/02 22:07:30;;;;;;;40.67;5.10;;;1.30;95.90;;;;;;4990730;28;20117;-71
2022/02/02 22:09:58;;;;;;;37.88;5.55;;;1.20;95.90;;;;;;4998036;28;20110;-71
2022/02/02 22:12:24;;;;;;;29.40;4.43;;;1.20;95.90;;;;;;5002650;28;20026;-71
2022/02/02 22:14:53;;;;;;;36.60;4.72;;;1.20;96.00;;;;;;5017203;28;20128;-71
2022/02/02 22:17:21;;;;;;;47.70;5.55;;;1.30;96.20;;;;;;5002179;28;20117;-71
2022/02/02 22:19:53;;;;;;;39.25;5.60;;;1.20;96.10;;;;;;4995126;28;20132;-71
2022/02/02 22:22:19;;;;;;;41.40;4.30;;;1.40;96.30;;;;;;5002698;28;20026;-71
2022/02/02 22:24:44;;;;;;;40.47;5.68;;;1.40;96.10;;;;;;5007554;28;20088;-71
2022/02/02 22:27:10;;;;;;;41.05;5.47;;;1.40;96.20;;;;;;5002879;28;20065;-71
2022/02/02 22:29:35;;;;;;;37.55;4.55;;;1.40;96.20;;;;;;4996402;28;20031;-71
2022/02/02 22:32:01;;;;;;;34.00;4.70;;;1.40;96.20;;;;;;4984273;28;20038;-71
2022/02/02 22:34:27;;;;;;;37.95;5.60;;;1.40;96.10;;;;;;5006375;28;20100;-71
2022/02/02 22:36:55;;;;;;;39.70;4.47;;;1.50;96.30;;;;;;5007528;28;20049;-71
2022/02/02 22:39:20;;;;;;;30.30;4.60;;;1.40;96.20;;;;;;4995747;28;20022;-71
2022/02/02 22:41:47;;;;;;;32.72;4.63;;;1.50;96.30;;;;;;4980127;28;20096;-71
2022/02/02 22:44:14;;;;;;;25.88;4.95;;;1.50;96.20;;;;;;5011926;28;20028;-71
2022/02/02 22:46:40;;;;;;;23.70;4.82;;;1.50;96.20;;;;;;4992326;28;20085;-71
2022/02/02 22:49:06;;;;;;;40.17;5.18;;;1.50;96.30;;;;;;4991399;28;20030;-71
2022/02/02 22:51:33;;;;;;;33.67;4.30;;;1.50;96.20;;;;;;4999360;28;20018;-71
2022/02/02 22:54:00;;;;;;;20.55;4.72;;;1.50;96.20;;;;;;4990236;28;20102;-71
2022/02/02 22:56:25;;;;;;;30.83;5.18;;;1.50;96.20;;;;;;4996067;28;20030;-71
2022/02/02 22:58:51;;;;;;;34.55;5.05;;;1.60;96.20;;;;;;5001884;28;20045;-72
2022/02/02 23:01:18;;;;;;;35.88;4.57;;;1.60;96.20;;;;;;4986323;28;20347;-71
2022/02/02 23:03:47;;;;;;;30.88;4.45;;;1.60;96.20;;;;;;4992948;28;20034;-71
2022/02/02 23:06:14;;;;;;;37.10;4.32;;;1.60;96.20;;;;;;4991134;28;20022;-71
2022/02/02 23:08:40;;;;;;;28.60;4.05;;;1.60;96.10;;;;;;4991261;28;20430;-71
2022/02/02 23:11:06;;;;;;;33.53;4.30;;;1.50;96.00;;;;;;4995729;28;20105;-71
2022/02/02 23:13:32;;;;;;;28.27;4.10;;;1.60;96.10;;;;;;4992212;28;20045;-71
2022/02/02 23:16:06;;;;;;;23.90;3.90;;;1.50;96.00;;;;;;4993691;28;20042;-71
2022/02/02 23:18:36;;;;;;;27.50;4.28;;;1.60;96.00;;;;;;5004617;28;20109;-71
2022/02/02 23:21:05;;;;;;;25.08;4.10;;;1.60;96.00;;;;;;4995419;28;20076;-71
2022/02/02 23:23:36;;;;;;;30.13;4.00;;;1.60;95.90;;;;;;4983325;28;20450;-71